createdAt,value
2023-02-15T06:50:01.666Z,441.56
2023-02-15T06:50:13.665Z,441.56
2023-02-15T06:50:25.638Z,441.44
2023-02-15T06:50:36.590Z,441.49
2023-02-15T06:50:47.639Z,441.51
2023-02-15T06:50:58.669Z,441.41
2023-02-15T06:51:10.629Z,441.55
2023-02-15T06:51:21.685Z,441.55
2023-02-15T06:51:33.663Z,441.50
2023-02-15T06:51:45.616Z,441.53
2023-02-15T06:51:56.643Z,441.55
2023-02-15T06:52:07.683Z,441.54
2023-02-15T06:52:19.628Z,441.51
2023-02-15T06:52:30.679Z,441.49
2023-02-15T06:52:42.623Z,441.54
2023-02-15T06:52:53.663Z,441.56
2023-02-15T06:53:05.624Z,441.57
2023-02-15T06:53:16.671Z,441.56
2023-02-15T06:53:28.622Z,441.58
2023-02-15T06:53:39.667Z,441.61
2023-02-15T06:53:51.637Z,441.59
2023-02-15T06:54:02.680Z,441.65
2023-02-15T06:54:14.647Z,441.67
2023-02-15T06:54:25.685Z,441.67
2023-02-15T06:54:37.643Z,441.66
2023-02-15T06:54:48.682Z,441.66
2023-02-15T06:55:00.648Z,441.67
2023-02-15T06:55:11.607Z,441.66
2023-02-15T06:55:22.639Z,441.67
2023-02-15T06:55:33.689Z,441.68
2023-02-15T06:55:45.633Z,441.66
2023-02-15T06:55:56.683Z,441.68
2023-02-15T06:56:08.654Z,441.70
2023-02-15T06:56:20.610Z,441.71
2023-02-15T06:56:31.668Z,441.73
2023-02-15T06:56:43.612Z,441.70
2023-02-15T06:56:54.665Z,441.69
2023-02-15T06:57:06.608Z,441.68
2023-02-15T06:57:17.656Z,441.69
2023-02-15T06:57:29.645Z,441.69
2023-02-15T06:57:40.598Z,441.72
2023-02-15T06:57:51.649Z,441.70
2023-02-15T06:58:02.594Z,441.68
2023-02-15T06:58:13.665Z,441.71
2023-02-15T06:58:25.622Z,441.74
2023-02-15T06:58:37.626Z,441.71
2023-02-15T06:58:48.659Z,441.74
2023-02-15T06:59:00.623Z,441.75
2023-02-15T06:59:11.592Z,441.76
2023-02-15T06:59:22.647Z,441.76
2023-02-15T06:59:33.590Z,441.75
2023-02-15T06:59:44.632Z,441.73
2023-02-15T06:59:55.586Z,441.72
2023-02-15T07:00:06.646Z,441.77
2023-02-15T07:00:17.593Z,441.84
2023-02-15T07:00:28.657Z,441.83
2023-02-15T07:00:39.597Z,441.84
2023-02-15T07:00:50.660Z,441.84
2023-02-15T07:01:02.617Z,441.81
2023-02-15T07:01:13.754Z,441.85
2023-02-15T07:01:25.658Z,441.91
2023-02-15T07:01:37.704Z,441.93
2023-02-15T07:01:48.800Z,441.91
2023-02-15T07:02:00.676Z,441.93
2023-02-15T07:02:12.693Z,441.99
2023-02-15T07:02:23.640Z,441.98
2023-02-15T07:02:34.675Z,442.05
2023-02-15T07:02:46.635Z,442.07
2023-02-15T07:02:57.687Z,442.08
2023-02-15T07:03:09.641Z,442.10
2023-02-15T07:03:20.680Z,442.07
2023-02-15T07:03:32.621Z,442.08
2023-02-15T07:03:43.678Z,442.18
2023-02-15T07:03:55.646Z,442.21
2023-02-15T07:04:06.678Z,442.29
2023-02-15T07:04:18.628Z,442.32
2023-02-15T07:04:29.843Z,442.30
2023-02-15T07:04:41.659Z,442.34
2023-02-15T07:04:53.673Z,442.42
2023-02-15T07:05:04.699Z,442.48
2023-02-15T07:05:16.687Z,442.43
2023-02-15T07:05:28.651Z,442.44
2023-02-15T07:05:40.605Z,442.48
2023-02-15T07:05:51.657Z,442.52
2023-02-15T07:06:04.002Z,442.52
2023-02-15T07:06:14.652Z,442.50
2023-02-15T07:06:26.610Z,442.53
2023-02-15T07:06:37.653Z,442.55
2023-02-15T07:06:48.592Z,442.51
2023-02-15T07:06:59.629Z,442.31
2023-02-15T07:07:10.663Z,442.55
2023-02-15T07:07:22.634Z,442.54
2023-02-15T07:07:33.675Z,442.53
2023-02-15T07:07:45.631Z,442.51
2023-02-15T07:07:56.668Z,442.52
2023-02-15T07:08:08.612Z,442.52
2023-02-15T07:08:19.667Z,442.57
2023-02-15T07:08:31.613Z,442.58
2023-02-15T07:08:42.681Z,442.55
2023-02-15T07:08:54.653Z,442.54
2023-02-15T07:09:05.587Z,442.55
2023-02-15T07:09:16.614Z,442.52
2023-02-15T07:09:27.654Z,442.47
2023-02-15T07:09:39.599Z,442.44
2023-02-15T07:09:50.638Z,442.43
2023-02-15T07:10:01.671Z,442.58
2023-02-15T07:10:13.638Z,442.59
2023-02-15T07:10:24.683Z,442.64
2023-02-15T07:10:36.639Z,442.62
2023-02-15T07:10:47.592Z,442.66
2023-02-15T07:10:58.630Z,442.65
2023-02-15T07:11:09.653Z,442.64
2023-02-15T07:11:21.613Z,442.69
2023-02-15T07:11:32.651Z,442.64
2023-02-15T07:11:44.612Z,442.74
2023-02-15T07:11:55.658Z,442.71
2023-02-15T07:12:07.600Z,442.72
2023-02-15T07:12:18.645Z,442.54
2023-02-15T07:12:29.585Z,442.74
2023-02-15T07:12:40.643Z,442.74
2023-02-15T07:12:52.606Z,442.78
2023-02-15T07:13:03.641Z,442.74
2023-02-15T07:13:14.678Z,442.82
2023-02-15T07:13:26.627Z,442.82
2023-02-15T07:13:37.675Z,442.81
2023-02-15T07:13:49.628Z,442.82
2023-02-15T07:14:00.674Z,442.87
2023-02-15T07:14:12.638Z,442.88
2023-02-15T07:14:23.675Z,442.88
2023-02-15T07:14:35.643Z,442.84
2023-02-15T07:14:47.603Z,442.93
2023-02-15T07:14:58.644Z,442.94
2023-02-15T07:15:09.585Z,443.03
2023-02-15T07:15:20.621Z,443.06
2023-02-15T07:15:31.660Z,443.05
2023-02-15T07:15:43.658Z,443.10
2023-02-15T07:15:55.696Z,443.11
2023-02-15T07:16:06.693Z,443.11
2023-02-15T07:16:18.728Z,443.17
2023-02-15T07:16:30.672Z,443.19
2023-02-15T07:16:41.634Z,443.23
2023-02-15T07:16:52.592Z,443.23
2023-02-15T07:17:03.635Z,443.22
2023-02-15T07:17:32.811Z,443.23
2023-02-15T07:17:35.450Z,443.21
2023-02-15T07:17:37.658Z,443.26
2023-02-15T07:17:47.584Z,443.27
2023-02-15T07:17:58.625Z,443.29
2023-02-15T07:18:09.677Z,443.24
2023-02-15T07:18:21.623Z,443.14
2023-02-15T07:18:32.579Z,443.29
2023-02-15T07:18:43.626Z,443.30
2023-02-15T07:18:54.663Z,443.19
2023-02-15T07:19:06.620Z,443.28
2023-02-15T07:19:17.656Z,443.31
2023-02-15T07:19:29.601Z,443.24
2023-02-15T07:19:40.639Z,443.23
2023-02-15T07:19:51.670Z,443.23
2023-02-15T07:20:03.625Z,443.28
2023-02-15T07:20:14.674Z,443.25
2023-02-15T07:20:26.627Z,443.34
2023-02-15T07:20:37.743Z,443.37
2023-02-15T07:20:49.600Z,443.32
2023-02-15T07:21:00.650Z,443.33
2023-02-15T07:21:12.611Z,443.31
2023-02-15T07:21:23.654Z,443.37
2023-02-15T07:21:35.621Z,443.39
2023-02-15T07:21:46.683Z,443.36
2023-02-15T07:21:58.658Z,443.42
2023-02-15T07:22:10.621Z,443.41
2023-02-15T07:22:21.657Z,443.32
2023-02-15T07:22:33.655Z,443.33
2023-02-15T07:22:45.598Z,443.26
2023-02-15T07:22:56.626Z,443.29
2023-02-15T07:23:07.665Z,443.42
2023-02-15T07:23:19.599Z,443.50
2023-02-15T07:23:30.641Z,443.50
2023-02-15T07:23:41.674Z,443.52
2023-02-15T07:23:53.654Z,443.61
2023-02-15T07:24:04.598Z,443.61
2023-02-15T07:24:15.635Z,443.56
2023-02-15T07:24:26.677Z,443.53
2023-02-15T07:24:38.626Z,443.63
2023-02-15T07:24:49.672Z,443.61
2023-02-15T07:25:01.635Z,443.65
2023-02-15T07:25:12.673Z,443.59
2023-02-15T07:25:24.626Z,443.61
2023-02-15T07:25:35.674Z,443.64
2023-02-15T07:25:47.622Z,443.69
2023-02-15T07:25:58.648Z,443.67
2023-02-15T07:26:09.590Z,443.64
2023-02-15T07:26:20.640Z,443.68
2023-02-15T07:26:31.581Z,443.69
2023-02-15T07:26:42.622Z,443.72
2023-02-15T07:26:53.663Z,443.69
2023-02-15T07:27:05.626Z,443.71
2023-02-15T07:27:16.673Z,443.73
2023-02-15T07:27:28.624Z,443.74
2023-02-15T07:27:39.667Z,443.75
2023-02-15T07:27:51.608Z,443.71
2023-02-15T07:28:02.644Z,443.76
2023-02-15T07:28:14.607Z,443.71
2023-02-15T07:28:25.643Z,443.71
2023-02-15T07:28:36.691Z,443.75
2023-02-15T07:28:48.645Z,443.76
2023-02-15T07:29:00.622Z,443.77
2023-02-15T07:29:11.666Z,443.78
2023-02-15T07:29:23.610Z,443.79
2023-02-15T07:29:34.647Z,443.78
2023-02-15T07:29:45.586Z,443.80
2023-02-15T07:29:56.682Z,443.77
2023-02-15T07:30:08.712Z,443.79
2023-02-15T07:30:19.735Z,443.78
2023-02-15T07:30:31.786Z,443.79
2023-02-15T07:30:42.645Z,443.77
2023-02-15T07:30:53.701Z,443.79
2023-02-15T07:31:05.698Z,443.85
2023-02-15T07:31:16.716Z,443.85
2023-02-15T07:31:27.674Z,443.94
2023-02-15T07:31:39.641Z,443.93
2023-02-15T07:31:50.589Z,443.89
2023-02-15T07:32:01.661Z,443.90
2023-02-15T07:32:13.723Z,443.92
2023-02-15T07:32:24.611Z,443.92
2023-02-15T07:32:35.626Z,443.93
2023-02-15T07:32:46.680Z,444.00
2023-02-15T07:32:58.640Z,443.97
2023-02-15T07:33:09.678Z,444.03
2023-02-15T07:33:21.627Z,444.03
2023-02-15T07:33:32.582Z,444.08
2023-02-15T07:33:43.640Z,444.11
2023-02-15T07:33:55.618Z,444.11
2023-02-15T07:34:06.669Z,444.07
2023-02-15T07:34:18.621Z,444.20
2023-02-15T07:34:29.668Z,444.22
2023-02-15T07:34:41.628Z,444.17
2023-02-15T07:34:52.580Z,444.16
2023-02-15T07:35:03.627Z,444.21
2023-02-15T07:35:14.675Z,444.23
2023-02-15T07:35:26.643Z,444.28
2023-02-15T07:35:37.589Z,444.28
2023-02-15T07:35:48.625Z,444.24
2023-02-15T07:35:59.911Z,444.29
2023-02-15T07:36:11.628Z,444.30
2023-02-15T07:36:22.668Z,444.27
2023-02-15T07:36:34.620Z,444.35
2023-02-15T07:36:45.672Z,444.33
2023-02-15T07:36:57.631Z,444.34
2023-02-15T07:37:08.677Z,444.35
2023-02-15T07:37:20.617Z,444.37
2023-02-15T07:37:31.660Z,444.40
2023-02-15T07:37:43.650Z,444.39
2023-02-15T07:37:54.579Z,444.42
2023-02-15T07:38:05.624Z,444.31
2023-02-15T07:38:16.672Z,444.48
2023-02-15T07:38:28.619Z,444.38
2023-02-15T07:38:39.662Z,444.47
2023-02-15T07:38:51.616Z,444.47
2023-02-15T07:39:02.665Z,444.55
2023-02-15T07:39:14.617Z,444.61
2023-02-15T07:39:25.678Z,444.61
2023-02-15T07:39:37.643Z,444.68
2023-02-15T07:39:48.693Z,444.70
2023-02-15T07:40:00.650Z,444.69
2023-02-15T07:40:12.662Z,444.73
2023-02-15T07:40:24.620Z,444.71
2023-02-15T07:40:35.664Z,444.80
2023-02-15T07:40:47.619Z,444.84
2023-02-15T07:40:58.658Z,444.81
2023-02-15T07:41:10.628Z,444.84
2023-02-15T07:41:21.644Z,444.99
2023-02-15T07:41:32.588Z,444.75
2023-02-15T07:41:43.632Z,444.76
2023-02-15T07:41:54.581Z,444.84
2023-02-15T07:42:05.634Z,444.85
2023-02-15T07:42:16.672Z,444.88
2023-02-15T07:42:28.616Z,444.87
2023-02-15T07:42:39.654Z,444.89
2023-02-15T07:42:53.755Z,444.91
2023-02-15T07:43:03.601Z,444.97
2023-02-15T07:43:14.659Z,444.98
2023-02-15T07:43:25.689Z,444.98
2023-02-15T07:43:37.674Z,444.97
2023-02-15T07:43:49.618Z,445.01
2023-02-15T07:44:00.668Z,445.03
2023-02-15T07:44:12.628Z,445.05
2023-02-15T07:44:23.676Z,445.05
2023-02-15T07:44:35.628Z,445.03
2023-02-15T07:44:46.680Z,444.97
2023-02-15T07:44:58.644Z,445.07
2023-02-15T07:45:10.645Z,445.05
2023-02-15T07:45:21.584Z,445.05
2023-02-15T07:45:32.635Z,445.04
2023-02-15T07:45:43.585Z,445.04
2023-02-15T07:45:54.641Z,445.06
2023-02-15T07:46:05.675Z,445.06
2023-02-15T07:46:16.703Z,445.05
2023-02-15T07:46:28.626Z,445.06
2023-02-15T07:46:40.635Z,445.06
2023-02-15T07:46:52.639Z,444.98
2023-02-15T07:47:04.609Z,445.10
2023-02-15T07:47:15.654Z,445.06
2023-02-15T07:47:26.587Z,445.08
2023-02-15T07:47:37.624Z,445.02
2023-02-15T07:47:48.701Z,445.02
2023-02-15T07:48:00.649Z,445.02
2023-02-15T07:48:12.606Z,445.10
2023-02-15T07:48:24.997Z,445.20
2023-02-15T07:48:34.583Z,445.26
2023-02-15T07:48:45.638Z,445.25
2023-02-15T07:48:56.582Z,445.22
2023-02-15T07:49:07.641Z,445.26
2023-02-15T07:49:18.681Z,445.25
2023-02-15T07:49:30.639Z,445.18
2023-02-15T07:49:41.678Z,445.16
2023-02-15T07:49:53.621Z,445.14
2023-02-15T07:50:04.668Z,445.17
2023-02-15T07:50:16.660Z,445.19
2023-02-15T07:50:28.626Z,445.18
2023-02-15T07:50:40.665Z,445.22
2023-02-15T07:50:52.671Z,445.19
2023-02-15T07:51:04.649Z,445.19
2023-02-15T07:51:15.592Z,445.19
2023-02-15T07:51:26.639Z,445.17
2023-02-15T07:51:37.597Z,445.15
2023-02-15T07:51:48.662Z,445.21
2023-02-15T07:52:00.625Z,445.17
2023-02-15T07:52:11.671Z,445.20
2023-02-15T07:52:23.636Z,445.17
2023-02-15T07:52:34.583Z,445.19
2023-02-15T07:52:45.619Z,445.15
2023-02-15T07:52:56.670Z,445.16
2023-02-15T07:53:08.646Z,445.16
2023-02-15T07:53:19.593Z,445.18
2023-02-15T07:53:30.664Z,445.15
2023-02-15T07:53:41.655Z,445.12
2023-02-15T07:53:53.662Z,445.24
2023-02-15T07:54:05.658Z,445.22
2023-02-15T07:54:17.665Z,445.23
2023-02-15T07:54:29.640Z,445.21
2023-02-15T07:54:40.579Z,445.23
2023-02-15T07:54:51.616Z,445.22
2023-02-15T07:55:02.653Z,445.24
2023-02-15T07:55:14.606Z,445.24
2023-02-15T07:55:25.675Z,445.27
2023-02-15T07:55:37.662Z,445.29
2023-02-15T07:55:49.633Z,445.30
2023-02-15T07:56:01.019Z,445.29
2023-02-15T07:56:12.664Z,445.29
2023-02-15T07:56:24.622Z,445.38
2023-02-15T07:56:37.129Z,445.41
2023-02-15T07:56:47.647Z,445.40
2023-02-15T07:56:59.615Z,445.39
2023-02-15T07:57:10.642Z,445.38
2023-02-15T07:57:22.618Z,445.44
2023-02-15T07:57:33.656Z,445.48
2023-02-15T07:57:44.593Z,445.46
2023-02-15T07:57:55.645Z,445.30
2023-02-15T08:01:41.640Z,445.16
2023-02-15T08:01:52.604Z,445.26
2023-02-15T08:02:03.646Z,445.30
2023-02-15T08:02:16.014Z,445.22
2023-02-15T08:02:25.667Z,445.32
2023-02-15T08:02:37.654Z,445.28
2023-02-15T08:02:49.617Z,445.28
2023-02-15T08:03:01.834Z,445.28
2023-02-15T08:03:13.857Z,445.21
2023-02-15T08:03:24.777Z,445.23
2023-02-15T08:03:36.718Z,445.18
2023-02-15T08:03:48.657Z,445.16
2023-02-15T08:03:59.694Z,445.16
2023-02-15T08:04:11.616Z,445.20
2023-02-15T08:04:22.658Z,445.22
2023-02-15T08:04:34.615Z,445.23
2023-02-15T08:04:45.668Z,445.20
2023-02-15T08:04:57.617Z,445.21
2023-02-15T08:05:08.651Z,445.18
2023-02-15T08:05:20.622Z,445.20
2023-02-15T08:05:31.681Z,444.98
2023-02-15T08:05:43.681Z,445.08
2023-02-15T08:05:55.628Z,445.08
2023-02-15T08:06:06.671Z,445.04
2023-02-15T08:06:18.634Z,445.00
2023-02-15T08:06:29.666Z,445.07
2023-02-15T08:06:41.642Z,445.11
2023-02-15T08:06:53.617Z,445.14
2023-02-15T08:07:04.669Z,445.07
2023-02-15T08:07:16.658Z,445.13
2023-02-15T08:07:27.759Z,445.11
2023-02-15T08:07:39.630Z,445.14
2023-02-15T08:07:50.681Z,445.12
2023-02-15T08:08:01.586Z,445.14
2023-02-15T08:08:12.636Z,445.16
2023-02-15T08:08:23.676Z,445.19
2023-02-15T08:08:35.587Z,445.18
2023-02-15T08:08:46.633Z,445.18
2023-02-15T08:08:57.680Z,445.14
2023-02-15T08:09:09.722Z,445.12
2023-02-15T08:09:20.662Z,445.15
2023-02-15T08:10:47.719Z,445.13
2023-02-15T08:12:06.722Z,445.25
2023-02-15T08:12:18.675Z,445.23
2023-02-15T08:12:30.631Z,445.25
2023-02-15T08:12:42.024Z,445.29
2023-02-15T08:12:53.606Z,445.30
2023-02-15T08:13:04.642Z,445.24
2023-02-15T08:13:15.678Z,445.30
2023-02-15T08:13:27.632Z,445.33
2023-02-15T08:13:38.669Z,445.36
2023-02-15T08:13:50.612Z,445.30
2023-02-15T08:14:02.613Z,445.28
2023-02-15T08:14:13.676Z,445.33
2023-02-15T08:14:25.623Z,445.33
2023-02-15T08:14:36.660Z,445.35
2023-02-15T08:14:48.636Z,445.33
2023-02-15T08:14:59.680Z,445.35
2023-02-15T08:15:11.646Z,445.33
2023-02-15T08:15:22.584Z,445.31
2023-02-15T08:15:33.617Z,445.33
2023-02-15T08:15:44.657Z,445.35
2023-02-15T08:15:56.650Z,445.33
2023-02-15T08:16:07.686Z,445.30
2023-02-15T08:16:19.703Z,445.34
2023-02-15T08:16:31.665Z,445.37
2023-02-15T08:16:42.684Z,445.30
2023-02-15T08:16:54.686Z,445.29
2023-02-15T08:17:06.620Z,445.26
2023-02-15T08:17:17.659Z,445.21
2023-02-15T08:17:29.638Z,445.17
2023-02-15T08:17:40.699Z,445.25
2023-02-15T08:17:52.725Z,445.18
2023-02-15T08:18:03.660Z,445.20
2023-02-15T08:18:15.635Z,445.20
2023-02-15T08:18:26.584Z,445.21
2023-02-15T08:18:37.607Z,445.23
2023-02-15T08:18:48.640Z,445.20
2023-02-15T08:18:59.583Z,445.19
2023-02-15T08:19:10.624Z,445.24
2023-02-15T08:19:21.681Z,445.27
2023-02-15T08:19:33.661Z,445.26
2023-02-15T08:19:45.637Z,445.26
2023-02-15T08:19:56.670Z,445.21
2023-02-15T08:20:08.621Z,445.27
2023-02-15T08:20:19.648Z,445.21
2023-02-15T08:20:30.614Z,445.25
2023-02-15T08:20:41.651Z,445.28
2023-02-15T08:20:53.667Z,445.26
2023-02-15T08:21:05.603Z,445.26
2023-02-15T08:21:16.637Z,445.29
2023-02-15T08:21:27.665Z,445.21
2023-02-15T08:21:39.650Z,445.30
2023-02-15T08:21:50.584Z,445.31
2023-02-15T08:22:01.626Z,445.33
2023-02-15T08:22:12.632Z,445.26
2023-02-15T08:22:23.664Z,445.21
2023-02-15T08:22:34.695Z,445.21
2023-02-15T08:22:46.663Z,445.16
2023-02-15T08:22:58.625Z,445.23
2023-02-15T08:23:09.652Z,445.23
2023-02-15T08:23:21.625Z,445.16
2023-02-15T08:23:32.677Z,445.19
2023-02-15T08:23:44.639Z,445.24
2023-02-15T08:23:55.685Z,445.22
2023-02-15T08:24:07.630Z,445.11
2023-02-15T08:24:18.673Z,445.17
2023-02-15T08:24:30.622Z,445.08
2023-02-15T08:24:41.657Z,445.08
2023-02-15T08:24:53.621Z,445.10
2023-02-15T08:25:04.674Z,445.11
2023-02-15T08:25:16.620Z,445.09
2023-02-15T08:25:27.660Z,445.07
2023-02-15T08:25:38.592Z,445.09
2023-02-15T08:25:49.655Z,445.11
2023-02-15T08:26:01.962Z,445.07
2023-02-15T08:26:12.667Z,445.13
2023-02-15T08:26:24.616Z,445.16
2023-02-15T08:26:35.648Z,445.15
2023-02-15T08:26:46.680Z,445.18
2023-02-15T08:26:58.634Z,445.21
2023-02-15T08:27:09.675Z,445.20
2023-02-15T08:27:21.633Z,445.22
2023-02-15T08:27:32.672Z,445.24
2023-02-15T08:27:44.629Z,445.24
2023-02-15T08:27:55.649Z,445.28
2023-02-15T08:28:06.684Z,445.31
2023-02-15T08:28:18.641Z,445.29
2023-02-15T08:28:29.664Z,445.36
2023-02-15T08:28:40.588Z,445.30
2023-02-15T08:28:51.644Z,445.45
2023-02-15T08:29:02.687Z,445.45
2023-02-15T08:29:14.623Z,445.45
2023-02-15T08:29:25.657Z,445.48
2023-02-15T08:29:37.609Z,445.56
2023-02-15T08:29:48.664Z,445.60
2023-02-15T08:30:00.707Z,445.60
2023-02-15T08:30:37.663Z,445.69
2023-02-15T08:30:48.685Z,445.71
2023-02-15T08:30:59.943Z,445.70
2023-02-15T08:31:10.747Z,445.97
2023-02-15T08:31:22.784Z,445.77
2023-02-15T08:31:33.818Z,445.75
2023-02-15T08:31:44.864Z,445.76
2023-02-15T08:31:55.702Z,445.96
2023-02-15T08:32:06.650Z,445.95
2023-02-15T08:32:18.613Z,445.90
2023-02-15T08:32:29.650Z,446.06
2023-02-15T08:32:40.684Z,446.16
2023-02-15T08:32:52.623Z,446.21
2023-02-15T08:33:03.659Z,446.17
2023-02-15T08:33:15.617Z,446.24
2023-02-15T08:33:26.651Z,446.21
2023-02-15T08:33:37.588Z,446.28
2023-02-15T08:33:48.639Z,446.27
2023-02-15T08:34:00.635Z,446.38
2023-02-15T08:34:11.675Z,446.41
2023-02-15T08:34:23.645Z,446.37
2023-02-15T08:34:35.626Z,446.40
2023-02-15T08:34:46.666Z,446.44
2023-02-15T08:34:58.611Z,446.48
2023-02-15T08:35:09.654Z,446.47
2023-02-15T08:35:21.611Z,446.44
2023-02-15T08:35:32.656Z,446.43
2023-02-15T08:35:43.595Z,446.47
2023-02-15T08:35:54.638Z,446.43
2023-02-15T08:36:05.619Z,446.45
2023-02-15T08:36:16.662Z,446.51
2023-02-15T08:36:27.600Z,446.53
2023-02-15T08:36:38.661Z,446.51
2023-02-15T08:36:49.659Z,446.49
2023-02-15T08:37:00.601Z,446.47
2023-02-15T08:37:11.647Z,446.46
2023-02-15T08:37:22.676Z,446.39
2023-02-15T08:37:33.598Z,446.48
2023-02-15T08:37:44.641Z,446.51
2023-02-15T08:37:55.588Z,446.48
2023-02-15T08:38:06.632Z,446.43
2023-02-15T08:38:17.670Z,446.44
2023-02-15T08:38:29.673Z,446.43
2023-02-15T08:38:41.630Z,446.47
2023-02-15T08:38:52.680Z,446.51
2023-02-15T08:39:04.624Z,446.27
2023-02-15T08:39:38.660Z,446.45
2023-02-15T08:39:49.597Z,446.51
2023-02-15T08:40:00.640Z,446.50
2023-02-15T08:40:11.684Z,446.51
2023-02-15T08:40:23.622Z,446.58
2023-02-15T08:40:34.663Z,446.53
2023-02-15T08:40:46.605Z,446.61
2023-02-15T08:40:57.631Z,446.57
2023-02-15T08:41:08.665Z,446.60
2023-02-15T08:41:20.603Z,446.62
2023-02-15T08:41:31.652Z,446.54
2023-02-15T08:41:42.686Z,446.63
2023-02-15T08:41:54.648Z,446.60
2023-02-15T08:42:05.671Z,446.60
2023-02-15T08:42:17.617Z,446.65
2023-02-15T08:42:28.648Z,446.65
2023-02-15T08:42:39.684Z,446.62
2023-02-15T08:42:51.633Z,446.68
2023-02-15T08:43:02.663Z,446.62
2023-02-15T08:43:13.593Z,446.65
2023-02-15T08:43:24.633Z,446.65
2023-02-15T08:43:35.669Z,446.63
2023-02-15T08:43:47.623Z,446.68
2023-02-15T08:43:58.661Z,446.67
2023-02-15T08:44:10.619Z,446.64
2023-02-15T08:44:21.652Z,446.62
2023-02-15T08:44:33.629Z,446.59
2023-02-15T08:44:44.681Z,446.60
2023-02-15T08:44:56.640Z,446.55
2023-02-15T08:45:07.689Z,446.48
2023-02-15T08:45:40.728Z,446.51
2023-02-15T08:45:51.660Z,446.58
2023-02-15T08:46:02.719Z,446.52
2023-02-15T08:46:14.663Z,446.47
2023-02-15T08:46:26.624Z,446.57
2023-02-15T08:46:37.676Z,446.45
2023-02-15T08:46:49.637Z,446.44
2023-02-15T08:47:19.681Z,446.55
2023-02-15T08:47:31.646Z,446.54
2023-02-15T08:47:42.691Z,446.44
2023-02-15T08:47:54.594Z,446.51
2023-02-15T08:48:05.643Z,446.55
2023-02-15T08:48:16.673Z,446.53
2023-02-15T08:48:28.617Z,446.51
2023-02-15T08:48:39.663Z,446.51
2023-02-15T08:48:50.594Z,446.54
2023-02-15T08:49:01.642Z,446.60
2023-02-15T08:49:12.686Z,446.40
2023-02-15T08:49:24.660Z,446.37
2023-02-15T08:49:35.600Z,446.37
2023-02-15T08:49:46.647Z,446.49
2023-02-15T08:49:57.686Z,446.44
2023-02-15T08:50:09.634Z,446.44
2023-02-15T08:50:20.671Z,446.44
2023-02-15T08:50:32.630Z,446.41
2023-02-15T08:50:43.666Z,446.39
2023-02-15T08:50:55.626Z,446.45
2023-02-15T08:51:06.666Z,446.44
2023-02-15T08:51:18.637Z,446.44
2023-02-15T08:51:29.692Z,446.60
2023-02-15T08:51:41.664Z,446.47
2023-02-15T08:51:53.604Z,446.55
2023-02-15T08:52:04.690Z,446.57
2023-02-15T08:52:16.651Z,446.46
2023-02-15T08:52:27.584Z,446.55
2023-02-15T08:52:38.646Z,446.54
2023-02-15T08:52:49.689Z,446.56
2023-02-15T08:53:01.644Z,446.50
2023-02-15T08:53:12.665Z,446.50
2023-02-15T08:53:24.656Z,446.52
2023-02-15T08:53:35.595Z,446.47
2023-02-15T08:53:46.635Z,446.46
2023-02-15T08:53:57.674Z,446.49
2023-02-15T08:54:09.621Z,446.51
2023-02-15T08:54:20.676Z,446.50
2023-02-15T08:54:32.634Z,446.55
2023-02-15T08:54:43.673Z,446.52
2023-02-15T08:54:55.614Z,446.51
2023-02-15T08:55:06.661Z,446.43
2023-02-15T08:55:18.617Z,446.45
2023-02-15T08:55:29.677Z,446.48
2023-02-15T08:55:41.618Z,446.44
2023-02-15T08:55:52.668Z,446.39
2023-02-15T08:56:04.632Z,446.51
2023-02-15T08:56:15.676Z,446.57
2023-02-15T08:56:27.657Z,446.52
2023-02-15T08:56:38.687Z,446.47
2023-02-15T08:56:50.652Z,446.49
2023-02-15T08:57:01.588Z,446.40
2023-02-15T08:57:12.627Z,446.51
2023-02-15T08:57:23.664Z,446.50
2023-02-15T08:57:35.613Z,446.44
2023-02-15T08:57:46.669Z,446.41
2023-02-15T08:57:58.635Z,446.44
2023-02-15T08:58:09.677Z,446.50
2023-02-15T08:58:21.639Z,446.55
2023-02-15T08:58:32.683Z,446.50
2023-02-15T08:58:44.634Z,446.56
2023-02-15T08:58:56.620Z,446.56
2023-02-15T08:59:07.674Z,446.54
2023-02-15T08:59:19.657Z,446.49
2023-02-15T08:59:30.613Z,446.55
2023-02-15T08:59:41.657Z,446.61
2023-02-15T08:59:53.608Z,446.57
2023-02-15T09:00:04.647Z,446.57
2023-02-15T09:00:16.620Z,446.57
2023-02-15T09:00:27.709Z,446.49
2023-02-15T09:00:39.668Z,446.53
2023-02-15T09:00:51.682Z,446.56
2023-02-15T09:01:04.032Z,446.63
2023-02-15T09:01:15.693Z,446.62
2023-02-15T09:01:26.740Z,446.60
2023-02-15T09:01:38.747Z,446.58
2023-02-15T09:01:50.658Z,446.57
2023-02-15T09:02:01.653Z,446.60
2023-02-15T09:02:13.685Z,446.65
2023-02-15T09:02:24.736Z,446.60
2023-02-15T09:02:36.670Z,446.65
2023-02-15T09:02:47.630Z,446.70
2023-02-15T09:02:58.665Z,446.74
2023-02-15T09:03:10.619Z,446.78
2023-02-15T09:03:21.659Z,446.74
2023-02-15T09:03:32.597Z,446.83
2023-02-15T09:03:43.647Z,446.83
2023-02-15T09:03:55.628Z,446.83
2023-02-15T09:04:06.675Z,446.82
2023-02-15T09:04:18.645Z,446.87
2023-02-15T09:04:29.593Z,446.84
2023-02-15T09:04:40.628Z,446.95
2023-02-15T09:04:51.675Z,446.94
2023-02-15T09:05:03.655Z,446.85
2023-02-15T09:05:14.599Z,446.94
2023-02-15T09:05:25.637Z,446.91
2023-02-15T09:05:36.592Z,446.96
2023-02-15T09:05:47.662Z,447.02
2023-02-15T09:05:59.616Z,447.04
2023-02-15T09:06:10.673Z,447.01
2023-02-15T09:06:22.647Z,446.98
2023-02-15T09:06:33.692Z,446.98
2023-02-15T09:06:48.144Z,447.11
2023-02-15T09:06:57.619Z,447.15
2023-02-15T09:07:08.662Z,447.11
2023-02-15T09:07:20.652Z,447.09
2023-02-15T09:07:32.616Z,447.09
2023-02-15T09:07:43.637Z,447.11
2023-02-15T09:07:54.683Z,447.19
2023-02-15T09:08:06.632Z,447.21
2023-02-15T09:08:17.677Z,447.08
2023-02-15T09:08:29.632Z,447.13
2023-02-15T09:08:40.660Z,447.16
2023-02-15T09:08:52.622Z,447.22
2023-02-15T09:09:03.666Z,447.23
2023-02-15T09:09:15.656Z,447.21
2023-02-15T09:09:26.690Z,447.13
2023-02-15T09:09:38.665Z,447.18
2023-02-15T09:09:50.625Z,447.20
2023-02-15T09:10:01.778Z,447.26
2023-02-15T09:10:13.643Z,447.25
2023-02-15T09:10:24.682Z,447.32
2023-02-15T09:10:36.646Z,447.32
2023-02-15T09:10:48.622Z,447.40
2023-02-15T09:11:00.092Z,447.41
2023-02-15T09:11:11.606Z,447.45
2023-02-15T09:11:22.654Z,447.39
2023-02-15T09:11:34.629Z,447.41
2023-02-15T09:11:45.674Z,447.49
2023-02-15T09:11:59.549Z,447.53
2023-02-15T09:12:08.592Z,447.49
2023-02-15T09:12:19.634Z,447.49
2023-02-15T09:12:30.686Z,447.50
2023-02-15T09:12:42.635Z,447.47
2023-02-15T09:12:53.677Z,447.49
2023-02-15T09:13:05.627Z,447.56
2023-02-15T09:13:16.677Z,447.55
2023-02-15T09:13:28.666Z,447.59
2023-02-15T09:13:40.618Z,447.62
2023-02-15T09:13:51.653Z,447.58
2023-02-15T09:14:03.634Z,447.68
2023-02-15T09:14:14.701Z,447.63
2023-02-15T09:14:26.657Z,447.67
2023-02-15T09:14:38.615Z,447.75
2023-02-15T09:14:49.648Z,447.76
2023-02-15T09:15:00.702Z,447.70
2023-02-15T09:15:12.596Z,447.70
2023-02-15T09:15:23.635Z,447.70
2023-02-15T09:15:35.624Z,447.43
2023-02-15T09:15:46.658Z,447.64
2023-02-15T09:15:58.607Z,447.60
2023-02-15T09:16:09.693Z,447.66
2023-02-15T09:16:21.692Z,447.67
2023-02-15T09:16:32.619Z,447.71
2023-02-15T09:16:43.669Z,447.51
2023-02-15T09:16:55.708Z,447.65
2023-02-15T09:17:07.619Z,447.64
2023-02-15T09:17:18.668Z,447.67
2023-02-15T09:17:30.618Z,447.52
2023-02-15T09:17:41.666Z,447.44
2023-02-15T09:17:53.611Z,447.69
2023-02-15T09:18:04.649Z,447.58
2023-02-15T09:18:15.592Z,447.62
2023-02-15T09:18:26.635Z,447.69
2023-02-15T09:18:37.687Z,447.55
2023-02-15T09:18:49.645Z,447.48
2023-02-15T09:19:01.612Z,447.58
2023-02-15T09:19:12.654Z,447.51
2023-02-15T09:19:23.591Z,447.47
2023-02-15T09:19:34.664Z,447.46
2023-02-15T09:19:46.609Z,447.51